Time;durP1;ratioP1;P1;durP2;ratioP2;P2;SDS_P1;SDS_P2;PMS_P1;PMS_P2;Temp;Humidity;BMP_temperature;BMP_pressure;BME280_temperature;BME280_humidity;BME280_pressure;Samples;Min_cycle;Max_cycle;Signal;HPM_P1;HPM_P2
2021/12/05 00:21:07;;;;;;;4.90;1.70;;;;;;;;;;6295578;22;20375;-42
2021/12/05 00:23:46;;;;;;;4.07;1.38;;;;;;;;;;6295958;22;20007;-43
2021/12/05 00:26:16;;;;;;;2.35;1.20;;;;;;;;;;6297777;22;20007;-42
2021/12/05 00:45:19;;;;;;;4.50;1.10;;;;;;;;;;6297498;22;20032;-42
2021/12/05 00:49:56;;;;;;;1.63;1.35;;;;;;;;;;6296407;22;20026;-42
2021/12/05 01:14:09;;;;;;;3.15;1.27;;;;;;;;;;6298331;22;20600;-42
2021/12/05 01:16:35;;;;;;;1.70;0.52;;;;;;;;;;6296591;22;20078;-43
2021/12/05 01:19:01;;;;;;;2.45;0.93;;;;;;;;;;6296069;22;20052;-42
2021/12/05 01:21:26;;;;;;;1.17;0.63;;;;;;;;;;6295518;22;20019;-44
2021/12/05 01:26:59;;;;;;;7.00;0.90;;;;;;;;;;6227072;22;20007;-43
2021/12/05 01:50:41;;;;;;;2.67;1.33;;;;;;;;;;6296391;22;20032;-43
2021/12/05 01:55:50;;;;;;;5.25;0.95;;;;;;;;;;6294914;22;20482;-42
2021/12/05 02:01:16;;;;;;;1.17;0.95;;;;;;;;;;6299069;22;20008;-42
2021/12/05 02:33:34;;;;;;;2.17;0.98;;;;;;;;;;6294524;22;20027;-42
2021/12/05 02:39:06;;;;;;;0.98;0.80;;;;;;;;;;6295803;22;20076;-41
2021/12/05 02:41:33;;;;;;;8.35;2.45;;;;;;;;;;6294439;22;20011;-42
2021/12/05 02:44:03;;;;;;;1.80;1.10;;;;;;;;;;6295730;22;20018;-44
2021/12/05 02:46:28;;;;;;;3.00;1.75;;;;;;;;;;6295298;22;20039;-44
2021/12/05 02:48:59;;;;;;;4.55;0.95;;;;;;;;;;6295681;22;20033;-42
2021/12/05 02:51:25;;;;;;;5.90;1.10;;;;;;;;;;6293532;22;20577;-43
2021/12/05 02:56:30;;;;;;;2.55;1.95;;;;;;;;;;6293776;22;20026;-42
2021/12/05 02:59:00;;;;;;;2.35;1.10;;;;;;;;;;6295723;22;20040;-44
2021/12/05 03:02:05;;;;;;;1.90;1.02;;;;;;;;;;6293443;22;20011;-42
2021/12/05 03:04:18;;;;;;;6.45;1.17;;;;;;;;;;6294148;22;20019;-44
2021/12/05 03:06:52;;;;;;;3.60;0.80;;;;;;;;;;6296555;22;20013;-42
2021/12/05 03:09:18;;;;;;;1.38;0.90;;;;;;;;;;6297462;22;20084;-42
2021/12/05 03:11:44;;;;;;;3.53;0.95;;;;;;;;;;6295863;22;20627;-41
2021/12/05 03:14:09;;;;;;;1.95;1.05;;;;;;;;;;6296819;22;20053;-42
2021/12/05 03:16:35;;;;;;;1.58;0.77;;;;;;;;;;6297452;22;20015;-42
2021/12/05 03:19:01;;;;;;;5.53;1.08;;;;;;;;;;6294592;22;20010;-42
2021/12/05 03:21:26;;;;;;;6.18;1.25;;;;;;;;;;6296849;22;20007;-42
2021/12/05 03:23:52;;;;;;;7.85;1.00;;;;;;;;;;6295914;22;20556;-46
2021/12/05 03:26:20;;;;;;;2.67;0.80;;;;;;;;;;6293116;22;20046;-42
2021/12/05 03:28:45;;;;;;;3.70;1.20;;;;;;;;;;6292856;22;20003;-41
2021/12/05 03:31:11;;;;;;;5.57;0.77;;;;;;;;;;6297235;22;20088;-41
2021/12/05 03:33:36;;;;;;;1.13;0.80;;;;;;;;;;6296151;22;20015;-41
2021/12/05 03:36:03;;;;;;;2.00;1.10;;;;;;;;;;6295882;22;20460;-42
2021/12/05 03:38:29;;;;;;;3.45;1.00;;;;;;;;;;6297209;22;20038;-43
2021/12/05 03:40:54;;;;;;;1.63;0.82;;;;;;;;;;6296476;22;20466;-44
2021/12/05 03:43:20;;;;;;;1.35;0.70;;;;;;;;;;6296689;22;20003;-41
2021/12/05 03:45:47;;;;;;;1.63;0.68;;;;;;;;;;6296428;22;20011;-42
2021/12/05 03:48:13;;;;;;;2.65;0.85;;;;;;;;;;6297454;22;20022;-43
2021/12/05 03:50:39;;;;;;;4.22;1.08;;;;;;;;;;6229446;22;20044;-44
2021/12/05 03:53:06;;;;;;;4.13;1.00;;;;;;;;;;6252205;22;20355;-42
2021/12/05 03:55:31;;;;;;;1.02;0.60;;;;;;;;;;6265013;22;20358;-43
2021/12/05 03:57:57;;;;;;;0.88;0.70;;;;;;;;;;6267514;22;20083;-43
2021/12/05 04:00:27;;;;;;;3.33;0.75;;;;;;;;;;6264446;22;20022;-43
2021/12/05 04:02:53;;;;;;;1.25;1.05;;;;;;;;;;6264228;22;20505;-42
2021/12/05 04:05:19;;;;;;;1.27;0.70;;;;;;;;;;6266005;22;20079;-42
2021/12/05 04:07:44;;;;;;;5.28;1.25;;;;;;;;;;6265399;22;20411;-43
2021/12/05 04:10:10;;;;;;;5.07;0.68;;;;;;;;;;6265953;22;20083;-43
2021/12/05 04:12:36;;;;;;;4.63;1.05;;;;;;;;;;6266502;22;20015;-43
2021/12/05 04:15:01;;;;;;;1.52;0.70;;;;;;;;;;6262107;22;20477;-44
2021/12/05 04:17:26;;;;;;;1.13;0.60;;;;;;;;;;6266709;22;20027;-42
2021/12/05 04:19:52;;;;;;;1.25;1.02;;;;;;;;;;6266053;22;20443;-45
2021/12/05 04:22:17;;;;;;;2.70;0.98;;;;;;;;;;6266324;22;20082;-43
2021/12/05 04:24:44;;;;;;;2.03;0.93;;;;;;;;;;6265620;22;20016;-43
2021/12/05 04:27:09;;;;;;;4.38;1.83;;;;;;;;;;6265858;22;20007;-43
2021/12/05 04:29:36;;;;;;;2.58;1.05;;;;;;;;;;6266397;22;20427;-43
2021/12/05 04:32:02;;;;;;;1.58;0.75;;;;;;;;;;6265886;22;20008;-43
2021/12/05 04:34:28;;;;;;;3.00;0.80;;;;;;;;;;6264619;22;20027;-42
2021/12/05 04:36:56;;;;;;;3.50;0.85;;;;;;;;;;6265115;22;19999;-43
2021/12/05 04:39:22;;;;;;;2.33;1.27;;;;;;;;;;6263683;22;20007;-44
2021/12/05 04:41:47;;;;;;;4.57;1.17;;;;;;;;;;6264655;22;20015;-43
2021/12/05 04:44:13;;;;;;;2.08;0.90;;;;;;;;;;6261900;22;20004;-43
2021/12/05 04:46:38;;;;;;;5.72;1.27;;;;;;;;;;6263910;22;20074;-43
2021/12/05 04:49:06;;;;;;;2.05;0.90;;;;;;;;;;6265873;22;20433;-43
2021/12/05 04:51:34;;;;;;;2.72;1.65;;;;;;;;;;6265099;22;20046;-42
2021/12/05 04:53:59;;;;;;;2.92;0.98;;;;;;;;;;6265323;22;20038;-43
2021/12/05 04:56:25;;;;;;;2.33;1.05;;;;;;;;;;6264216;22;20809;-43
2021/12/05 04:58:52;;;;;;;2.17;0.98;;;;;;;;;;6265944;22;20015;-42
2021/12/05 05:01:17;;;;;;;7.97;1.45;;;;;;;;;;6264868;22;20011;-43
2021/12/05 05:03:42;;;;;;;5.15;1.73;;;;;;;;;;6267027;22;20008;-44
2021/12/05 05:06:13;;;;;;;1.98;0.77;;;;;;;;;;6263304;22;20082;-44
2021/12/05 05:08:38;;;;;;;6.22;1.20;;;;;;;;;;6266106;22;20038;-44
2021/12/05 05:11:05;;;;;;;1.05;1.00;;;;;;;;;;6262639;22;20110;-43
2021/12/05 05:13:32;;;;;;;0.50;0.38;;;;;;;;;;6265636;22;20135;-44
2021/12/05 05:15:58;;;;;;;1.65;0.90;;;;;;;;;;6265357;22;20359;-44
2021/12/05 05:18:27;;;;;;;3.03;0.20;;;;;;;;;;6264556;22;20016;-43
2021/12/05 05:21:05;;;;;;;0.73;0.38;;;;;;;;;;6266047;22;20010;-43
2021/12/05 05:50:12;;;;;;;1.23;0.47;;;;;;;;;;6266286;22;20047;-42
2021/12/05 05:52:37;;;;;;;0.38;0.38;;;;;;;;;;6264551;22;20015;-43
2021/12/05 05:55:03;;;;;;;0.80;0.77;;;;;;;;;;6265901;22;20435;-43
2021/12/05 05:57:44;;;;;;;1.42;0.60;;;;;;;;;;6265008;22;20008;-42
2021/12/05 06:00:18;;;;;;;0.93;0.43;;;;;;;;;;6265306;22;20018;-42
2021/12/05 06:05:29;;;;;;;1.05;0.50;;;;;;;;;;6265726;22;20022;-42
2021/12/05 06:07:54;;;;;;;0.88;0.60;;;;;;;;;;6263962;22;20015;-43
2021/12/05 06:10:21;;;;;;;1.33;0.40;;;;;;;;;;6265184;22;20019;-42
2021/12/05 06:12:47;;;;;;;2.47;1.05;;;;;;;;;;6264877;22;20459;-43
2021/12/05 06:15:13;;;;;;;0.52;0.40;;;;;;;;;;6266362;22;20042;-42
2021/12/05 06:17:39;;;;;;;0.52;0.43;;;;;;;;;;6263205;22;19999;-42
2021/12/05 06:20:08;;;;;;;2.47;0.50;;;;;;;;;;6265935;22;20018;-42
2021/12/05 06:22:33;;;;;;;1.38;0.35;;;;;;;;;;6263443;22;20015;-42
2021/12/05 06:24:59;;;;;;;0.50;0.40;;;;;;;;;;6266230;22;20015;-43
2021/12/05 06:27:24;;;;;;;0.77;0.68;;;;;;;;;;6263600;22;20016;-42
2021/12/05 06:30:03;;;;;;;3.45;0.45;;;;;;;;;;6264450;22;20015;-43
2021/12/05 06:46:08;;;;;;;0.98;0.40;;;;;;;;;;6268496;22;20043;-44
2021/12/05 06:48:33;;;;;;;1.92;0.50;;;;;;;;;;6266066;22;20022;-43
2021/12/05 06:50:58;;;;;;;1.80;0.65;;;;;;;;;;6264621;22;20086;-42
2021/12/05 06:53:24;;;;;;;0.65;0.40;;;;;;;;;;6267283;22;20463;-44
2021/12/05 06:55:49;;;;;;;0.30;0.30;;;;;;;;;;6265499;22;20530;-42
2021/12/05 06:58:14;;;;;;;0.50;0.50;;;;;;;;;;6267309;22;20011;-43
2021/12/05 07:00:40;;;;;;;2.20;0.35;;;;;;;;;;6265671;22;20443;-43
2021/12/05 07:03:07;;;;;;;0.20;0.20;;;;;;;;;;6267854;22;20055;-44
2021/12/05 07:07:58;;;;;;;0.30;0.22;;;;;;;;;;6267428;22;20003;-43
2021/12/05 07:10:24;;;;;;;1.23;0.55;;;;;;;;;;6264316;22;20065;-45
2021/12/05 07:25:12;;;;;;;2.65;0.50;;;;;;;;;;6263599;22;20093;-42
2021/12/05 07:41:28;;;;;;;1.75;0.65;;;;;;;;;;6264181;22;20095;-42
2021/12/05 07:43:54;;;;;;;0.50;0.50;;;;;;;;;;6261650;22;20090;-42
2021/12/05 07:46:19;;;;;;;0.52;0.50;;;;;;;;;;6260949;22;20031;-44
2021/12/05 07:48:46;;;;;;;0.47;0.47;;;;;;;;;;6261029;22;20062;-42
2021/12/05 07:57:04;;;;;;;1.08;0.80;;;;;;;;;;6262626;22;20007;-40
2021/12/05 07:59:16;;;;;;;0.97;0.93;;;;;;;;;;6253733;22;20008;-41
2021/12/05 08:17:37;;;;;;;0.65;0.60;;;;;;;;;;6264586;22;20027;-42
2021/12/05 08:20:05;;;;;;;3.00;0.60;;;;;;;;;;6266961;22;20035;-41
2021/12/05 08:22:30;;;;;;;2.22;1.25;;;;;;;;;;6264258;22;20933;-42
2021/12/05 08:24:59;;;;;;;2.67;0.82;;;;;;;;;;6266892;22;20006;-42
2021/12/05 08:27:24;;;;;;;2.25;1.08;;;;;;;;;;6264308;22;20011;-44
2021/12/05 08:29:54;;;;;;;5.00;0.98;;;;;;;;;;6266378;22;20015;-42
2021/12/05 08:32:34;;;;;;;0.95;0.80;;;;;;;;;;6265673;22;20062;-42
2021/12/05 08:35:21;;;;;;;;;;;;;;;;;;6266454;22;20024;-42
2021/12/05 08:45:56;;;;;;;1.95;0.95;;;;;;;;;;6264870;22;20080;-43
2021/12/05 09:29:21;;;;;;;1.40;1.02;;;;;;;;;;6264279;22;20470;-45
2021/12/05 09:40:13;;;;;;;3.38;1.15;;;;;;;;;;6263673;22;20014;-45
2021/12/05 10:01:44;;;;;;;3.05;1.20;;;;;;;;;;6260550;22;20043;-48
2021/12/05 10:26:55;;;;;;;5.78;1.40;;;;;;;;;;6264988;22;20089;-44
2021/12/05 10:37:28;;;;;;;2.00;0.82;;;;;;;;;;6266395;22;20027;-44
2021/12/05 10:40:02;;;;;;;3.90;1.25;;;;;;;;;;6267288;22;20706;-44
2021/12/05 10:42:39;;;;;;;1.13;1.02;;;;;;;;;;6265870;22;20065;-47
2021/12/05 10:45:05;;;;;;;1.08;1.00;;;;;;;;;;6267600;22;20000;-46
2021/12/05 10:47:34;;;;;;;1.45;0.90;;;;;;;;;;6264794;22;20372;-45
2021/12/05 10:50:19;;;;;;;1.37;1.10;;;;;;;;;;6266055;22;20061;-44
2021/12/05 10:52:45;;;;;;;2.63;1.30;;;;;;;;;;6265874;22;20019;-41
2021/12/05 10:55:11;;;;;;;3.85;1.15;;;;;;;;;;6265067;22;20023;-47
2021/12/05 10:57:41;;;;;;;2.30;0.95;;;;;;;;;;6263120;22;20082;-48
2021/12/05 11:00:11;;;;;;;3.70;1.20;;;;;;;;;;6262481;22;20007;-45
2021/12/05 11:02:37;;;;;;;3.47;1.85;;;;;;;;;;6263356;22;20008;-44
2021/12/05 11:05:02;;;;;;;1.02;0.80;;;;;;;;;;6265015;22;20015;-44
2021/12/05 11:07:27;;;;;;;4.38;0.80;;;;;;;;;;6262375;22;20450;-44
2021/12/05 11:09:57;;;;;;;3.92;1.17;;;;;;;;;;6263795;22;20061;-44
2021/12/05 11:12:24;;;;;;;1.70;0.90;;;;;;;;;;6263172;22;20012;-44
2021/12/05 11:14:54;;;;;;;1.38;1.20;;;;;;;;;;6264202;22;20015;-43
2021/12/05 11:17:21;;;;;;;4.63;0.90;;;;;;;;;;6263216;22;20106;-45
2021/12/05 11:19:49;;;;;;;2.63;0.80;;;;;;;;;;6264077;22;20004;-43
2021/12/05 11:22:32;;;;;;;1.35;1.20;;;;;;;;;;6262390;22;20386;-44
2021/12/05 11:25:02;;;;;;;2.50;0.80;;;;;;;;;;6263527;22;20063;-44
2021/12/05 11:27:35;;;;;;;2.15;0.88;;;;;;;;;;6263084;22;20011;-44
2021/12/05 11:30:04;;;;;;;3.40;1.17;;;;;;;;;;6261620;22;20011;-44
2021/12/05 11:32:35;;;;;;;1.10;0.93;;;;;;;;;;6262441;22;20011;-43
2021/12/05 11:35:11;;;;;;;2.42;1.50;;;;;;;;;;6262983;22;20016;-44
2021/12/05 11:37:49;;;;;;;4.50;1.20;;;;;;;;;;6262107;22;20014;-43
2021/12/05 11:40:14;;;;;;;2.83;1.00;;;;;;;;;;6263548;22;20018;-45
2021/12/05 11:42:49;;;;;;;4.22;1.20;;;;;;;;;;6263759;22;20078;-43
2021/12/05 11:45:14;;;;;;;5.97;2.65;;;;;;;;;;6265010;22;20725;-47
2021/12/05 11:47:40;;;;;;;3.13;0.90;;;;;;;;;;6265883;22;20026;-44
2021/12/05 11:50:06;;;;;;;2.40;1.10;;;;;;;;;;6266313;22;20838;-43
2021/12/05 11:52:36;;;;;;;4.22;0.90;;;;;;;;;;6265742;22;20463;-44
2021/12/05 11:55:02;;;;;;;4.65;1.10;;;;;;;;;;6267183;22;20016;-43
2021/12/05 11:57:27;;;;;;;2.28;1.42;;;;;;;;;;6265309;22;20008;-43
2021/12/05 11:59:54;;;;;;;2.03;0.75;;;;;;;;;;6265372;22;20008;-43
2021/12/05 12:02:21;;;;;;;1.85;1.20;;;;;;;;;;6265564;22;20008;-43
2021/12/05 12:04:58;;;;;;;3.03;0.95;;;;;;;;;;6267118;22;20011;-45
2021/12/05 12:07:43;;;;;;;2.35;1.00;;;;;;;;;;6265919;22;20012;-43
2021/12/05 12:10:08;;;;;;;1.15;0.90;;;;;;;;;;6265840;22;20012;-43
2021/12/05 12:12:33;;;;;;;4.07;1.30;;;;;;;;;;6264768;22;20007;-43
2021/12/05 12:14:59;;;;;;;4.10;1.10;;;;;;;;;;6267066;22;20015;-44
2021/12/05 12:17:25;;;;;;;1.75;0.98;;;;;;;;;;6265586;22;20034;-43
2021/12/05 12:19:51;;;;;;;5.80;1.75;;;;;;;;;;6267037;22;20004;-43
2021/12/05 12:22:19;;;;;;;2.47;1.15;;;;;;;;;;6265136;22;20015;-43
2021/12/05 12:24:47;;;;;;;2.28;1.20;;;;;;;;;;6266442;22;20012;-46
2021/12/05 12:27:13;;;;;;;3.85;1.23;;;;;;;;;;6265128;22;20049;-43
2021/12/05 12:29:38;;;;;;;2.72;1.50;;;;;;;;;;6266822;22;20061;-43
2021/12/05 12:32:11;;;;;;;1.52;1.10;;;;;;;;;;6266145;22;20004;-43
2021/12/05 12:34:36;;;;;;;3.10;1.38;;;;;;;;;;6266061;22;20030;-44
2021/12/05 12:37:01;;;;;;;1.75;1.20;;;;;;;;;;6266043;22;20019;-43
2021/12/05 12:39:37;;;;;;;9.82;3.20;;;;;;;;;;6266124;22;20600;-43
2021/12/05 12:42:16;;;;;;;1.60;1.50;;;;;;;;;;6265457;22;20008;-43
2021/12/05 12:44:56;;;;;;;1.40;1.00;;;;;;;;;;6266342;22;20039;-45
2021/12/05 12:47:28;;;;;;;1.48;0.90;;;;;;;;;;6265804;22;20561;-43
2021/12/05 12:49:53;;;;;;;1.20;0.98;;;;;;;;;;6266095;22;20348;-43
2021/12/05 12:52:20;;;;;;;1.75;1.02;;;;;;;;;;6264683;22;20088;-45
2021/12/05 12:54:55;;;;;;;4.18;1.02;;;;;;;;;;6267567;22;20090;-45
2021/12/05 12:57:26;;;;;;;2.40;1.13;;;;;;;;;;6265229;22;20043;-43
2021/12/05 12:59:55;;;;;;;0.88;0.70;;;;;;;;;;6265500;22;20455;-46
2021/12/05 13:02:29;;;;;;;1.08;0.85;;;;;;;;;;6265057;22;20391;-44
2021/12/05 13:05:15;;;;;;;2.28;1.25;;;;;;;;;;6266411;22;20008;-43
2021/12/05 13:10:27;;;;;;;1.33;0.80;;;;;;;;;;6264912;22;20018;-44
2021/12/05 13:12:54;;;;;;;1.00;0.90;;;;;;;;;;6266742;22;20020;-43
2021/12/05 13:15:22;;;;;;;2.90;1.40;;;;;;;;;;6264783;22;20092;-43
2021/12/05 13:17:52;;;;;;;1.83;1.00;;;;;;;;;;6266204;22;20008;-44
2021/12/05 13:20:20;;;;;;;3.35;1.15;;;;;;;;;;6263576;22;20011;-43
2021/12/05 13:23:24;;;;;;;1.15;1.05;;;;;;;;;;6266108;22;20512;-43
2021/12/05 13:26:02;;;;;;;3.25;1.50;;;;;;;;;;6112028;23;20560;-44
2021/12/05 13:28:30;;;;;;;2.58;1.05;;;;;;;;;;6112205;23;20018;-43
2021/12/05 13:30:56;;;;;;;5.05;1.00;;;;;;;;;;6190134;22;20014;-43
2021/12/05 13:33:22;;;;;;;1.75;0.90;;;;;;;;;;6265471;22;20387;-44
2021/12/05 13:35:48;;;;;;;4.68;1.52;;;;;;;;;;6264861;22;20451;-44
2021/12/05 13:38:38;;;;;;;6.80;1.15;;;;;;;;;;6261549;22;20007;-44
2021/12/05 13:41:03;;;;;;;;;;;;;;;;;;6257814;22;20077;-43
2021/12/05 13:43:28;;;;;;;2.08;1.08;;;;;;;;;;6263531;22;19907;-43
2021/12/05 13:45:57;;;;;;;3.67;1.85;;;;;;;;;;6265678;22;20134;-43
2021/12/05 13:48:25;;;;;;;1.83;1.02;;;;;;;;;;6265878;22;20014;-43
2021/12/05 13:50:57;;;;;;;1.80;1.20;;;;;;;;;;6264553;22;20024;-43
2021/12/05 13:53:30;;;;;;;2.03;1.38;;;;;;;;;;6265816;22;20012;-43
2021/12/05 13:56:07;;;;;;;1.73;1.00;;;;;;;;;;6265284;22;20431;-43
2021/12/05 13:58:36;;;;;;;1.95;1.40;;;;;;;;;;6265006;22;20081;-43
2021/12/05 14:01:15;;;;;;;2.53;1.10;;;;;;;;;;6264039;22;20015;-43
2021/12/05 14:03:40;;;;;;;4.68;0.95;;;;;;;;;;6264857;22;20030;-44
2021/12/05 14:06:25;;;;;;;5.47;1.30;;;;;;;;;;6265777;22;20402;-43
2021/12/05 14:08:52;;;;;;;3.33;1.00;;;;;;;;;;6264192;22;20081;-44
2021/12/05 14:11:17;;;;;;;3.65;1.10;;;;;;;;;;6265560;22;20004;-44
2021/12/05 14:13:43;;;;;;;3.72;1.30;;;;;;;;;;6264848;22;20020;-45
2021/12/05 14:16:08;;;;;;;3.10;1.40;;;;;;;;;;6265821;22;20004;-43
2021/12/05 14:18:33;;;;;;;4.97;1.77;;;;;;;;;;6263697;22;20436;-43
2021/12/05 14:21:15;;;;;;;1.45;0.80;;;;;;;;;;6265603;22;20018;-43
2021/12/05 14:23:46;;;;;;;3.22;1.08;;;;;;;;;;6260616;22;20007;-43
2021/12/05 14:26:12;;;;;;;3.28;1.02;;;;;;;;;;6262785;22;20484;-44
2021/12/05 14:28:37;;;;;;;2.00;1.27;;;;;;;;;;6261222;22;20523;-44
2021/12/05 14:31:03;;;;;;;4.05;1.30;;;;;;;;;;6263462;22;20027;-43
2021/12/05 14:33:30;;;;;;;5.97;1.60;;;;;;;;;;6261693;22;20032;-44
2021/12/05 14:35:55;;;;;;;2.72;1.70;;;;;;;;;;6259957;22;20648;-43
2021/12/05 14:38:21;;;;;;;2.33;1.08;;;;;;;;;;6260014;22;20016;-43
2021/12/05 14:40:46;;;;;;;2.03;0.98;;;;;;;;;;6262134;22;20018;-44
2021/12/05 14:43:12;;;;;;;3.30;1.20;;;;;;;;;;6261360;22;20026;-43
2021/12/05 14:45:40;;;;;;;1.45;1.20;;;;;;;;;;6261616;22;20014;-44
2021/12/05 14:48:07;;;;;;;4.28;0.95;;;;;;;;;;6262237;22;20014;-47
2021/12/05 14:50:33;;;;;;;2.72;1.40;;;;;;;;;;6260794;22;20023;-45
2021/12/05 14:53:02;;;;;;;1.88;1.00;;;;;;;;;;6258213;22;20347;-47
2021/12/05 14:55:28;;;;;;;3.60;1.00;;;;;;;;;;6258435;22;20020;-44
2021/12/05 14:57:56;;;;;;;2.05;1.17;;;;;;;;;;6264895;22;20824;-44
2021/12/05 15:00:24;;;;;;;2.33;1.13;;;;;;;;;;6264785;22;20321;-44
2021/12/05 15:02:58;;;;;;;1.77;1.05;;;;;;;;;;6266128;22;20011;-43
2021/12/05 15:05:23;;;;;;;1.63;1.00;;;;;;;;;;6267643;22;20012;-45
2021/12/05 15:07:49;;;;;;;1.42;0.93;;;;;;;;;;6266140;22;20004;-44
2021/12/05 15:10:21;;;;;;;4.70;1.30;;;;;;;;;;6267157;22;20011;-44
2021/12/05 15:12:49;;;;;;;1.98;1.00;;;;;;;;;;6266381;22;20004;-43
2021/12/05 15:15:14;;;;;;;3.95;1.50;;;;;;;;;;6266267;22;20019;-43
2021/12/05 15:17:41;;;;;;;1.00;0.98;;;;;;;;;;6267161;22;20344;-44
2021/12/05 15:20:11;;;;;;;5.57;1.65;;;;;;;;;;6267201;22;20009;-45
2021/12/05 15:22:36;;;;;;;2.28;1.10;;;;;;;;;;6265891;22;20008;-44
2021/12/05 15:25:04;;;;;;;5.10;2.80;;;;;;;;;;6267062;22;20012;-45
2021/12/05 15:27:33;;;;;;;5.43;1.55;;;;;;;;;;6265474;22;20026;-43
2021/12/05 15:30:06;;;;;;;2.27;1.30;;;;;;;;;;6267475;22;20488;-44
2021/12/05 15:32:32;;;;;;;4.05;1.35;;;;;;;;;;6265759;22;20350;-43
2021/12/05 15:35:00;;;;;;;2.42;1.20;;;;;;;;;;6267111;22;20577;-43
2021/12/05 15:37:25;;;;;;;10.30;2.03;;;;;;;;;;6266254;22;20732;-44
2021/12/05 15:39:52;;;;;;;7.55;1.58;;;;;;;;;;6267350;22;20011;-44
2021/12/05 15:42:25;;;;;;;1.38;1.27;;;;;;;;;;6266397;22;20103;-44
2021/12/05 15:44:51;;;;;;;4.05;2.53;;;;;;;;;;6266055;22;20018;-44
2021/12/05 15:47:18;;;;;;;5.63;3.45;;;;;;;;;;6267697;22;20115;-43
2021/12/05 15:49:52;;;;;;;5.25;1.75;;;;;;;;;;6266703;22;20007;-43
2021/12/05 15:52:19;;;;;;;5.63;1.77;;;;;;;;;;6264682;22;20030;-44
2021/12/05 15:54:45;;;;;;;3.38;1.13;;;;;;;;;;6266742;22;20443;-44
2021/12/05 15:57:16;;;;;;;3.40;1.45;;;;;;;;;;6265832;22;20018;-43
2021/12/05 15:59:43;;;;;;;3.88;1.60;;;;;;;;;;6266029;22;20345;-44
2021/12/05 16:02:10;;;;;;;3.75;1.92;;;;;;;;;;6267557;22;20023;-43
2021/12/05 16:04:37;;;;;;;5.72;1.60;;;;;;;;;;6265137;22;20455;-44
2021/12/05 16:07:03;;;;;;;6.25;2.10;;;;;;;;;;6266491;22;20012;-44
2021/12/05 16:09:28;;;;;;;4.53;1.33;;;;;;;;;;6265357;22;20635;-43
2021/12/05 16:12:16;;;;;;;4.60;1.90;;;;;;;;;;6266682;22;20015;-45
2021/12/05 16:14:43;;;;;;;5.00;1.20;;;;;;;;;;6265251;22;20039;-44
2021/12/05 16:17:12;;;;;;;1.92;1.40;;;;;;;;;;6266709;22;20083;-43
2021/12/05 16:19:38;;;;;;;2.60;1.75;;;;;;;;;;6265462;22;20007;-45
2021/12/05 16:22:03;;;;;;;4.82;1.55;;;;;;;;;;6263704;22;20012;-43
2021/12/05 16:24:28;;;;;;;2.13;1.70;;;;;;;;;;6262059;22;20868;-46
2021/12/05 16:26:54;;;;;;;2.63;1.48;;;;;;;;;;6263082;22;20063;-43
2021/12/05 16:29:22;;;;;;;3.03;1.30;;;;;;;;;;6262774;22;20576;-43
2021/12/05 16:31:52;;;;;;;2.50;2.30;;;;;;;;;;6263406;22;20004;-44
2021/12/05 16:34:19;;;;;;;3.75;1.85;;;;;;;;;;6262173;22;20497;-44
2021/12/05 16:36:47;;;;;;;3.50;1.33;;;;;;;;;;6263168;22;20007;-48
2021/12/05 16:39:14;;;;;;;1.60;1.50;;;;;;;;;;6261696;22;20411;-44
2021/12/05 16:41:47;;;;;;;7.25;1.88;;;;;;;;;;6262201;22;20015;-43
2021/12/05 16:44:14;;;;;;;8.85;1.65;;;;;;;;;;6262792;22;20015;-44
2021/12/05 16:46:44;;;;;;;4.30;1.48;;;;;;;;;;6262003;22;20018;-43
2021/12/05 16:49:12;;;;;;;3.55;1.50;;;;;;;;;;6262626;22;20015;-43
2021/12/05 16:51:43;;;;;;;2.15;1.42;;;;;;;;;;6262401;22;20184;-45
2021/12/05 16:54:17;;;;;;;4.50;1.35;;;;;;;;;;6262474;22;20565;-47
2021/12/05 16:57:03;;;;;;;2.42;1.20;;;;;;;;;;6263405;22;20347;-44
2021/12/05 16:59:48;;;;;;;2.83;1.08;;;;;;;;;;6246059;22;20439;-46
2021/12/05 17:02:16;;;;;;;5.22;1.85;;;;;;;;;;6261373;22;20027;-45
2021/12/05 17:04:45;;;;;;;2.85;1.42;;;;;;;;;;6263927;22;20070;-44
2021/12/05 17:07:14;;;;;;;3.60;1.50;;;;;;;;;;6263171;22;20015;-44
2021/12/05 17:09:39;;;;;;;2.90;1.47;;;;;;;;;;6262810;22;20075;-46
2021/12/05 17:12:04;;;;;;;1.67;1.30;;;;;;;;;;6262417;22;20066;-45
2021/12/05 17:14:30;;;;;;;2.90;1.00;;;;;;;;;;6262411;22;20026;-44
2021/12/05 17:16:56;;;;;;;2.45;1.70;;;;;;;;;;6262489;22;20000;-43
2021/12/05 17:19:24;;;;;;;4.78;1.60;;;;;;;;;;6261116;22;20004;-44
2021/12/05 17:21:50;;;;;;;3.35;1.60;;;;;;;;;;6261876;22;20069;-44
2021/12/05 17:24:16;;;;;;;1.90;1.00;;;;;;;;;;6261841;22;20065;-47
2021/12/05 17:26:42;;;;;;;2.47;1.10;;;;;;;;;;6261958;22;20008;-43
2021/12/05 17:29:22;;;;;;;4.00;1.20;;;;;;;;;;6261648;22;20020;-43
2021/12/05 17:31:52;;;;;;;3.53;1.50;;;;;;;;;;6263373;22;20060;-43
2021/12/05 17:34:26;;;;;;;4.82;1.70;;;;;;;;;;6258487;22;20102;-43
2021/12/05 17:36:59;;;;;;;4.50;1.20;;;;;;;;;;6263386;22;20016;-44
2021/12/05 17:39:30;;;;;;;2.30;1.00;;;;;;;;;;6262102;22;20021;-45
2021/12/05 17:42:07;;;;;;;2.75;1.40;;;;;;;;;;6262788;22;20040;-43
2021/12/05 17:44:33;;;;;;;3.03;1.48;;;;;;;;;;6261227;22;20737;-43
2021/12/05 17:47:05;;;;;;;4.25;1.30;;;;;;;;;;6263204;22;20008;-43
2021/12/05 17:49:32;;;;;;;2.13;1.10;;;;;;;;;;6261407;22;20011;-43
2021/12/05 17:51:59;;;;;;;3.55;1.60;;;;;;;;;;6260197;22;20016;-43
2021/12/05 17:54:35;;;;;;;3.53;1.40;;;;;;;;;;6261954;22;20034;-44
2021/12/05 17:57:08;;;;;;;3.35;1.30;;;;;;;;;;6262666;22;20479;-44
2021/12/05 17:59:55;;;;;;;3.20;1.15;;;;;;;;;;6262397;22;20019;-43
2021/12/05 18:05:09;;;;;;;3.40;1.33;;;;;;;;;;6263548;22;20451;-44
2021/12/05 18:07:35;;;;;;;1.38;1.10;;;;;;;;;;6261966;22;20343;-43
2021/12/05 18:10:01;;;;;;;3.47;1.30;;;;;;;;;;6262558;22;20011;-44
2021/12/05 18:12:34;;;;;;;2.40;1.80;;;;;;;;;;6260705;22;20039;-43
2021/12/05 18:15:01;;;;;;;4.22;2.42;;;;;;;;;;6263506;22;20023;-45
2021/12/05 18:17:26;;;;;;;2.70;1.90;;;;;;;;;;6261367;22;20004;-44
2021/12/05 18:19:51;;;;;;;5.85;1.95;;;;;;;;;;6263385;22;20019;-45
2021/12/05 18:22:17;;;;;;;9.27;4.05;;;;;;;;;;6260093;22;20513;-43
2021/12/05 18:24:44;;;;;;;5.97;1.85;;;;;;;;;;6262745;22;20010;-44
2021/12/05 18:27:10;;;;;;;2.88;1.50;;;;;;;;;;6261867;22;20018;-47
2021/12/05 18:29:35;;;;;;;4.45;1.70;;;;;;;;;;6262212;22;20075;-44
2021/12/05 18:32:00;;;;;;;1.92;1.65;;;;;;;;;;6261315;22;20404;-43
2021/12/05 18:34:28;;;;;;;8.85;2.30;;;;;;;;;;6263550;22;20352;-43
2021/12/05 18:36:56;;;;;;;2.38;1.58;;;;;;;;;;6264695;22;20025;-44
2021/12/05 18:39:36;;;;;;;5.28;2.08;;;;;;;;;;6263354;22;20018;-45
2021/12/05 18:42:05;;;;;;;3.50;1.60;;;;;;;;;;6261935;22;20027;-43
2021/12/05 18:44:33;;;;;;;2.67;1.38;;;;;;;;;;6263939;22;20016;-44
2021/12/05 18:46:58;;;;;;;3.75;1.40;;;;;;;;;;6263809;22;20042;-44
2021/12/05 18:49:25;;;;;;;2.38;1.33;;;;;;;;;;6263079;22;20004;-44
2021/12/05 18:51:50;;;;;;;2.33;1.50;;;;;;;;;;6263374;22;20023;-43
2021/12/05 18:54:16;;;;;;;3.30;1.45;;;;;;;;;;6262168;22;20028;-44
2021/12/05 18:56:41;;;;;;;1.90;1.45;;;;;;;;;;6265006;22;20765;-45
2021/12/05 18:59:07;;;;;;;4.85;2.00;;;;;;;;;;6261002;22;20495;-45
2021/12/05 19:07:03;;;;;;;3.42;1.73;;;;;;;;;;6266807;22;20039;-43
2021/12/05 19:12:30;;;;;;;6.00;1.77;;;;;;;;;;6199001;23;20095;-43
2021/12/05 19:14:58;;;;;;;3.20;1.52;;;;;;;;;;6251548;22;20020;-43
2021/12/05 19:17:26;;;;;;;3.28;1.80;;;;;;;;;;6263090;22;20012;-45
2021/12/05 19:19:52;;;;;;;1.67;1.30;;;;;;;;;;6263265;22;20507;-44
2021/12/05 19:22:19;;;;;;;2.90;1.58;;;;;;;;;;6262013;22;20085;-43
2021/12/05 19:24:45;;;;;;;4.55;1.50;;;;;;;;;;6263687;22;20401;-42
2021/12/05 19:27:10;;;;;;;2.80;2.15;;;;;;;;;;6262898;22;20003;-42
2021/12/05 19:29:36;;;;;;;3.05;1.60;;;;;;;;;;6263176;22;20012;-44
2021/12/05 19:32:03;;;;;;;8.05;3.05;;;;;;;;;;6262464;22;20548;-44
2021/12/05 19:34:29;;;;;;;13.43;4.88;;;;;;;;;;6262544;22;20023;-43
2021/12/05 19:36:54;;;;;;;3.13;1.45;;;;;;;;;;6262752;22;20642;-43
2021/12/05 19:39:23;;;;;;;4.13;2.03;;;;;;;;;;6262462;22;20012;-43
2021/12/05 19:41:48;;;;;;;5.35;2.53;;;;;;;;;;6264291;22;20004;-43
2021/12/05 19:44:15;;;;;;;2.50;1.63;;;;;;;;;;6262717;22;20017;-44
2021/12/05 19:46:41;;;;;;;3.28;1.38;;;;;;;;;;6263547;22;20014;-43
2021/12/05 19:49:06;;;;;;;3.97;1.75;;;;;;;;;;6263019;22;19999;-44
2021/12/05 19:51:32;;;;;;;4.38;1.77;;;;;;;;;;6262642;22;20026;-43
2021/12/05 19:53:57;;;;;;;2.10;1.30;;;;;;;;;;6262024;22;20070;-45
2021/12/05 19:56:24;;;;;;;3.95;1.55;;;;;;;;;;6264365;22;20023;-44
2021/12/05 19:58:49;;;;;;;3.53;1.48;;;;;;;;;;6261865;22;20584;-43
2021/12/05 20:01:14;;;;;;;3.88;1.70;;;;;;;;;;6263081;22;20078;-43
2021/12/05 20:03:41;;;;;;;2.25;2.05;;;;;;;;;;6264003;22;20017;-43
2021/12/05 20:06:07;;;;;;;3.58;1.85;;;;;;;;;;6262704;22;20014;-43
2021/12/05 20:08:32;;;;;;;6.15;2.20;;;;;;;;;;6264093;22;20402;-43
2021/12/05 20:10:59;;;;;;;3.45;1.63;;;;;;;;;;6261516;22;20015;-44
2021/12/05 20:13:25;;;;;;;5.50;2.55;;;;;;;;;;6262231;22;20398;-43
2021/12/05 20:15:50;;;;;;;3.72;2.13;;;;;;;;;;6260866;22;20503;-43
2021/12/05 20:18:15;;;;;;;4.72;2.30;;;;;;;;;;6262238;22;20008;-44
2021/12/05 20:20:42;;;;;;;4.22;2.15;;;;;;;;;;6263688;22;20440;-43
2021/12/05 20:23:08;;;;;;;3.15;2.08;;;;;;;;;;6262678;22;20014;-43
2021/12/05 20:25:33;;;;;;;4.70;2.50;;;;;;;;;;6261979;22;20371;-43
2021/12/05 20:28:00;;;;;;;7.32;1.90;;;;;;;;;;6263280;22;20008;-43
2021/12/05 20:30:26;;;;;;;4.60;2.40;;;;;;;;;;6261934;22;20057;-45